Time;durP1;ratioP1;P1;durP2;ratioP2;P2;SDS_P1;SDS_P2;PMS_P1;PMS_P2;Temp;Humidity;BMP_temperature;BMP_pressure;BME280_temperature;BME280_humidity;BME280_pressure;Samples;Min_cycle;Max_cycle;Signal;HPM_P1;HPM_P2
2022/04/30 00:00:16;;;;;;;0.60;0.60;;;18.00;99.90;;;;;;5043960;28;20674;-92
2022/04/30 00:02:47;;;;;;;0.70;0.70;;;17.90;99.90;;;;;;5042655;28;20241;-92
2022/04/30 00:05:20;;;;;;;0.93;0.60;;;17.50;99.90;;;;;;5044409;28;20288;-92
2022/04/30 00:07:51;;;;;;;0.93;0.70;;;17.30;99.90;;;;;;5044255;28;20212;-92
2022/04/30 00:10:23;;;;;;;1.13;0.80;;;17.30;99.90;;;;;;5045919;28;20316;-92
2022/04/30 00:12:55;;;;;;;1.80;0.80;;;17.50;99.90;;;;;;5047103;28;20201;-92
2022/04/30 00:15:29;;;;;;;0.73;0.60;;;17.70;99.90;;;;;;5047660;28;20213;-92
2022/04/30 00:18:03;;;;;;;1.23;0.70;;;17.70;99.90;;;;;;5047418;28;20213;-92
2022/04/30 00:20:37;;;;;;;1.83;0.60;;;17.80;99.90;;;;;;5045801;28;20204;-92
2022/04/30 00:25:55;;;;;;;0.87;0.70;;;17.80;99.90;;;;;;5046468;28;20228;-92
2022/04/30 00:28:27;;;;;;;0.70;0.70;;;18.20;99.90;;;;;;5046565;28;20212;-91
2022/04/30 00:30:59;;;;;;;1.87;0.70;;;18.30;99.90;;;;;;5048602;28;20263;-92
2022/04/30 00:33:30;;;;;;;0.50;0.50;;;18.20;99.90;;;;;;5051566;28;20251;-92
2022/04/30 00:36:05;;;;;;;0.60;0.60;;;18.30;99.90;;;;;;5051432;28;20205;-92
2022/04/30 00:41:23;;;;;;;0.70;0.70;;;18.20;99.90;;;;;;5049353;28;20282;-93
2022/04/30 00:43:56;;;;;;;0.60;0.57;;;18.20;99.90;;;;;;5050263;28;20185;-93
2022/04/30 00:46:28;;;;;;;0.67;0.67;;;18.30;99.90;;;;;;5047390;28;20248;-93
2022/04/30 00:49:01;;;;;;;0.70;0.60;;;18.20;99.90;;;;;;5041120;28;20702;-92
2022/04/30 00:51:38;;;;;;;0.90;0.70;;;18.00;99.90;;;;;;5040261;28;20239;-92
2022/04/30 00:54:11;;;;;;;0.70;0.70;;;18.10;99.90;;;;;;5048370;28;20219;-93
2022/04/30 00:56:47;;;;;;;1.37;0.60;;;18.30;99.90;;;;;;5054071;28;20216;-92
2022/04/30 00:59:24;;;;;;;1.40;0.80;;;18.60;99.90;;;;;;5055393;28;20217;-92
2022/04/30 01:01:59;;;;;;;1.67;0.70;;;19.10;99.90;;;;;;5050349;28;20271;-92
2022/04/30 01:04:31;;;;;;;0.97;0.50;;;19.20;99.90;;;;;;5027605;28;20272;-93
2022/04/30 01:07:08;;;;;;;1.23;0.63;;;19.50;99.90;;;;;;5027599;28;20201;-92
2022/04/30 01:09:44;;;;;;;0.57;0.57;;;19.20;99.90;;;;;;5035507;28;20268;-93
2022/04/30 01:12:25;;;;;;;0.63;0.50;;;19.00;99.90;;;;;;5033865;28;20216;-93
2022/04/30 01:15:04;;;;;;;0.60;0.60;;;19.00;99.90;;;;;;5030760;28;20232;-92
2022/04/30 01:17:37;;;;;;;2.07;0.80;;;19.10;99.90;;;;;;5032053;28;20205;-92
2022/04/30 01:20:10;;;;;;;1.47;0.70;;;19.10;99.90;;;;;;5038265;28;20181;-92
2022/04/30 01:23:14;;;;;;;2.13;0.60;;;18.90;99.90;;;;;;5055607;28;20197;-93
2022/04/30 01:28:34;;;;;;;0.67;0.67;;;19.40;99.90;;;;;;5028542;28;20288;-92
2022/04/30 01:39:29;;;;;;;1.80;0.60;;;19.10;99.90;;;;;;5017096;28;20248;-92
2022/04/30 01:42:12;;;;;;;1.20;0.70;;;19.10;99.90;;;;;;5016864;28;20206;-92
2022/04/30 01:44:46;;;;;;;2.27;1.80;;;19.10;99.90;;;;;;5024063;28;20237;-91
2022/04/30 01:47:20;;;;;;;0.53;0.50;;;18.80;99.90;;;;;;5020727;28;20217;-92
2022/04/30 01:49:51;;;;;;;1.10;0.80;;;18.40;99.90;;;;;;5022815;28;20739;-92
2022/04/30 01:52:24;;;;;;;0.93;0.73;;;17.80;99.90;;;;;;5021325;28;20257;-92
2022/04/30 01:57:43;;;;;;;1.70;0.80;;;17.10;99.90;;;;;;5018157;28;20271;-92
2022/04/30 02:00:20;;;;;;;1.93;0.80;;;16.60;99.90;;;;;;5020073;28;20315;-89
2022/04/30 02:02:52;;;;;;;1.10;0.70;;;16.20;99.90;;;;;;5027648;28;20205;-90
2022/04/30 02:05:27;;;;;;;0.70;0.70;;;16.10;99.90;;;;;;5031815;28;20227;-92
2022/04/30 02:08:03;;;;;;;0.60;0.50;;;15.90;99.90;;;;;;5032430;28;20216;-92
2022/04/30 02:10:38;;;;;;;0.93;0.70;;;15.70;99.90;;;;;;5028938;28;20233;-92
2022/04/30 02:16:25;;;;;;;0.80;0.73;;;15.50;99.90;;;;;;5029544;28;20214;-92
2022/04/30 02:21:35;;;;;;;0.90;0.70;;;15.30;99.90;;;;;;4969867;28;20226;-90
2022/04/30 02:24:11;;;;;;;0.70;0.70;;;15.10;99.90;;;;;;4971327;28;20663;-90
2022/04/30 02:26:45;;;;;;;0.73;0.60;;;15.10;99.90;;;;;;4971975;28;20238;-91
2022/04/30 02:29:19;;;;;;;1.97;0.60;;;15.00;99.90;;;;;;4972017;28;20243;-91
2022/04/30 02:31:51;;;;;;;0.97;0.80;;;14.80;99.90;;;;;;4970320;28;20235;-91
2022/04/30 02:37:17;;;;;;;1.37;0.60;;;14.60;99.90;;;;;;4973972;28;20207;-91
2022/04/30 02:40:02;;;;;;;1.37;0.83;;;14.60;99.90;;;;;;4977269;29;20212;-91
2022/04/30 02:42:34;;;;;;;2.23;0.90;;;14.60;99.90;;;;;;4971257;28;20666;-91
2022/04/30 02:45:35;;;;;;;0.60;0.53;;;14.60;99.90;;;;;;4976808;28;20220;-90
2022/04/30 02:51:07;;;;;;;2.33;0.80;;;14.50;99.90;;;;;;4972794;28;20266;-91
2022/04/30 02:53:39;;;;;;;0.80;0.70;;;14.40;99.90;;;;;;4973568;28;20215;-91
2022/04/30 02:56:13;;;;;;;0.70;0.60;;;14.30;99.90;;;;;;4975003;28;20219;-90
2022/04/30 03:08:29;;;;;;;0.70;0.70;;;14.00;99.90;;;;;;4953488;29;20807;-90
2022/04/30 03:11:03;;;;;;;1.63;0.80;;;13.90;99.90;;;;;;4954876;29;20231;-91
2022/04/30 03:13:36;;;;;;;0.77;0.77;;;13.90;99.90;;;;;;4949141;29;20655;-91
2022/04/30 03:29:54;;;;;;;2.10;0.60;;;13.70;99.90;;;;;;5046096;28;20221;-92
2022/04/30 03:32:26;;;;;;;1.00;0.67;;;13.70;99.90;;;;;;5041268;28;20723;-92
2022/04/30 03:34:57;;;;;;;1.67;0.90;;;13.70;99.90;;;;;;5055964;28;20209;-92
2022/04/30 03:37:29;;;;;;;2.00;0.80;;;13.70;99.90;;;;;;5053592;28;20197;-92
2022/04/30 03:40:00;;;;;;;0.93;0.87;;;13.70;99.90;;;;;;5048475;28;20427;-92
2022/04/30 03:42:31;;;;;;;0.67;0.63;;;13.60;99.90;;;;;;5041470;28;20578;-92
2022/04/30 03:45:04;;;;;;;2.10;0.80;;;13.60;99.90;;;;;;5046748;28;20232;-92
2022/04/30 03:47:37;;;;;;;3.43;0.90;;;13.60;99.90;;;;;;5039157;28;20262;-91
2022/04/30 03:50:11;;;;;;;0.90;0.80;;;13.60;99.90;;;;;;5044052;28;20245;-90
2022/04/30 03:52:42;;;;;;;1.73;1.00;;;13.50;99.90;;;;;;5052227;28;20284;-90
2022/04/30 03:55:14;;;;;;;1.80;0.80;;;13.50;99.90;;;;;;5051073;28;20733;-91
2022/04/30 03:57:45;;;;;;;1.13;1.00;;;13.50;99.90;;;;;;5039130;28;20300;-91
2022/04/30 04:00:22;;;;;;;2.10;0.83;;;13.50;99.90;;;;;;5021221;28;20208;-91
2022/04/30 04:02:55;;;;;;;1.70;0.80;;;13.40;99.90;;;;;;5028419;28;20220;-92
2022/04/30 04:05:28;;;;;;;1.30;0.90;;;13.50;99.90;;;;;;5054990;28;20213;-91
2022/04/30 04:08:00;;;;;;;1.60;0.80;;;13.50;99.90;;;;;;5055338;28;20197;-91
2022/04/30 04:10:32;;;;;;;3.57;1.00;;;13.40;99.90;;;;;;5057893;28;20205;-91
2022/04/30 04:21:25;;;;;;;6.07;1.07;;;13.30;99.90;;;;;;5047364;28;20278;-90
2022/04/30 04:29:37;;;;;;;2.37;1.20;;;13.20;99.90;;;;;;5032132;28;20213;-92
2022/04/30 04:32:16;;;;;;;1.43;1.33;;;13.20;99.90;;;;;;5020497;28;20233;-90
2022/04/30 04:34:47;;;;;;;1.40;1.30;;;13.20;99.90;;;;;;5040330;28;20208;-90
2022/04/30 04:37:23;;;;;;;1.73;1.60;;;13.20;99.90;;;;;;5039348;28;20209;-89
2022/04/30 04:39:54;;;;;;;2.07;1.40;;;13.10;99.90;;;;;;5044080;28;20553;-91
2022/04/30 04:42:26;;;;;;;2.30;1.20;;;13.10;99.90;;;;;;5040774;28;20211;-91
2022/04/30 04:44:57;;;;;;;1.43;0.90;;;13.00;99.90;;;;;;5047547;28;20235;-90
2022/04/30 04:47:31;;;;;;;1.30;1.20;;;13.00;99.90;;;;;;5038574;28;20196;-90
2022/04/30 04:50:03;;;;;;;1.07;1.00;;;13.00;99.90;;;;;;5028272;28;20209;-90
2022/04/30 04:52:34;;;;;;;2.60;2.40;;;13.00;99.90;;;;;;5029773;28;20237;-91
2022/04/30 04:55:06;;;;;;;4.07;3.77;;;13.00;99.90;;;;;;5018867;28;20312;-91
2022/04/30 04:57:37;;;;;;;2.73;2.47;;;12.90;99.90;;;;;;5017761;28;20678;-91
2022/04/30 05:00:10;;;;;;;2.43;1.90;;;12.90;99.90;;;;;;5019275;28;20236;-91
2022/04/30 05:02:43;;;;;;;1.47;1.37;;;12.90;99.90;;;;;;5017971;28;20271;-90
2022/04/30 05:05:15;;;;;;;1.27;1.10;;;13.00;99.90;;;;;;5018436;28;20210;-90
2022/04/30 05:07:46;;;;;;;1.73;1.37;;;13.10;99.90;;;;;;5018983;28;20671;-91
2022/04/30 05:10:17;;;;;;;1.10;0.93;;;13.00;99.90;;;;;;5018063;28;20296;-91
2022/04/30 05:12:49;;;;;;;2.10;1.10;;;13.10;99.90;;;;;;5018777;28;20244;-90
2022/04/30 05:15:21;;;;;;;1.13;0.90;;;13.00;99.90;;;;;;5021330;28;20209;-91
2022/04/30 05:17:56;;;;;;;1.30;1.00;;;13.00;99.90;;;;;;5019433;28;20210;-91
2022/04/30 05:20:28;;;;;;;2.17;1.20;;;13.00;99.90;;;;;;5019414;28;20631;-91
2022/04/30 05:23:12;;;;;;;3.63;1.00;;;13.00;99.90;;;;;;5020574;28;20212;-91
2022/04/30 05:25:44;;;;;;;1.60;1.30;;;13.00;99.90;;;;;;5021745;28;20209;-91
2022/04/30 05:28:15;;;;;;;2.07;1.17;;;13.00;99.90;;;;;;5017748;28;20309;-91
2022/04/30 05:30:47;;;;;;;4.60;1.23;;;12.90;99.90;;;;;;5027968;28;20321;-91
2022/04/30 05:33:20;;;;;;;4.83;1.63;;;12.90;99.90;;;;;;5024053;28;20321;-92
2022/04/30 05:35:51;;;;;;;1.97;1.30;;;12.90;99.90;;;;;;5018215;28;20236;-91
2022/04/30 05:38:24;;;;;;;1.67;1.30;;;12.90;99.90;;;;;;5019940;28;20652;-91
2022/04/30 05:40:55;;;;;;;3.13;1.30;;;12.80;99.90;;;;;;5019167;28;20209;-90
2022/04/30 05:43:27;;;;;;;1.73;1.40;;;12.70;99.90;;;;;;5020556;28;20233;-92
2022/04/30 05:45:57;;;;;;;2.60;1.67;;;12.50;99.90;;;;;;5022070;28;20289;-91
2022/04/30 05:48:30;;;;;;;1.53;1.43;;;12.40;99.90;;;;;;5028202;28;20212;-90
2022/04/30 05:51:04;;;;;;;1.77;1.60;;;12.30;99.90;;;;;;5033066;28;20291;-89
2022/04/30 05:53:36;;;;;;;5.73;1.80;;;12.20;99.90;;;;;;5032609;28;20260;-91
2022/04/30 05:56:08;;;;;;;4.47;1.53;;;12.20;99.90;;;;;;5030451;28;20209;-91
2022/04/30 05:58:39;;;;;;;2.23;1.60;;;12.10;99.90;;;;;;5022457;28;20205;-91
2022/04/30 06:01:11;;;;;;;2.57;1.77;;;12.10;99.90;;;;;;5019877;28;20233;-91
2022/04/30 06:03:46;;;;;;;3.80;1.80;;;12.10;99.90;;;;;;5779054;23;20204;-90
2022/04/30 06:06:20;;;;;;;2.23;1.80;;;12.00;99.90;;;;;;5010997;28;20202;-90
2022/04/30 06:08:52;;;;;;;4.50;2.27;;;12.00;99.90;;;;;;5010980;28;20214;-89
2022/04/30 06:11:28;;;;;;;2.87;1.90;;;12.00;99.90;;;;;;5014680;28;20217;-90
2022/04/30 06:14:00;;;;;;;2.23;1.87;;;12.10;99.90;;;;;;5008174;28;20221;-89
2022/04/30 06:16:31;;;;;;;2.80;1.80;;;12.00;99.90;;;;;;5014217;28;20194;-90
2022/04/30 06:19:05;;;;;;;3.80;2.10;;;12.00;99.90;;;;;;5014280;28;20233;-89
2022/04/30 06:21:45;;;;;;;2.67;2.00;;;11.90;99.90;;;;;;5012711;28;20257;-90
2022/04/30 06:29:57;;;;;;;2.53;2.07;;;11.60;99.90;;;;;;5016113;28;20223;-91
2022/04/30 06:32:29;;;;;;;2.27;1.70;;;11.60;99.90;;;;;;5016576;28;20261;-92
2022/04/30 06:35:02;;;;;;;3.90;2.57;;;11.40;99.90;;;;;;5021163;28;20209;-91
2022/04/30 06:37:33;;;;;;;3.60;2.07;;;11.30;99.90;;;;;;5017215;28;20233;-92
2022/04/30 06:40:05;;;;;;;2.80;2.10;;;11.30;99.90;;;;;;5018348;28;20210;-91
2022/04/30 06:42:45;;;;;;;2.70;2.23;;;11.10;99.90;;;;;;5017467;28;20651;-91
2022/04/30 06:45:17;;;;;;;2.40;2.13;;;11.10;99.90;;;;;;5017777;28;20300;-91
2022/04/30 06:47:48;;;;;;;3.20;2.23;;;11.00;99.90;;;;;;5009722;28;20237;-91
2022/04/30 06:50:21;;;;;;;2.97;2.33;;;10.90;99.90;;;;;;4998691;28;20206;-91
2022/04/30 06:58:27;;;;;;;3.10;2.53;;;10.70;99.90;;;;;;5008990;28;20210;-88
2022/04/30 07:03:47;;;;;;;2.80;2.13;;;10.60;99.90;;;;;;5008458;28;20233;-87
2022/04/30 07:06:20;;;;;;;2.40;2.20;;;10.60;99.90;;;;;;5018046;28;20279;-88
2022/04/30 07:08:51;;;;;;;3.53;2.23;;;10.60;99.90;;;;;;5021250;28;20232;-88
2022/04/30 07:11:22;;;;;;;4.03;2.60;;;10.50;99.90;;;;;;5034432;28;20221;-86
2022/04/30 07:13:54;;;;;;;2.97;2.40;;;10.50;99.90;;;;;;5034422;28;20253;-89
2022/04/30 07:16:26;;;;;;;2.60;2.40;;;10.50;99.90;;;;;;5027488;28;20215;-88
2022/04/30 07:18:58;;;;;;;2.80;2.50;;;10.40;99.90;;;;;;5023307;28;20232;-89
2022/04/30 07:21:32;;;;;;;3.30;2.60;;;10.40;99.90;;;;;;5018266;28;20268;-90
2022/04/30 07:24:03;;;;;;;3.10;2.70;;;10.30;99.90;;;;;;5017211;28;20264;-90
2022/04/30 07:26:34;;;;;;;3.50;2.20;;;10.20;99.90;;;;;;5020669;28;20240;-89
2022/04/30 07:29:06;;;;;;;2.87;2.60;;;10.20;99.90;;;;;;5022437;28;20244;-90
2022/04/30 07:31:36;;;;;;;2.87;2.53;;;10.20;99.90;;;;;;5020295;28;20668;-90
2022/04/30 07:34:09;;;;;;;4.23;2.90;;;10.20;99.90;;;;;;5020762;28;20309;-90
2022/04/30 07:36:43;;;;;;;4.23;2.80;;;10.10;99.90;;;;;;5021675;28;20233;-89
2022/04/30 07:39:14;;;;;;;5.67;2.80;;;10.00;99.90;;;;;;5019779;28;20895;-90
2022/04/30 07:41:53;;;;;;;6.23;3.50;;;9.90;99.90;;;;;;5020690;28;20276;-90
2022/04/30 07:44:29;;;;;;;4.60;3.37;;;9.90;99.90;;;;;;5022154;28;20210;-89
2022/04/30 07:47:01;;;;;;;5.20;3.30;;;9.80;99.90;;;;;;5020813;28;20236;-90
2022/04/30 07:49:33;;;;;;;6.60;3.03;;;9.90;99.90;;;;;;5022001;28;20209;-89
2022/04/30 07:52:07;;;;;;;5.43;3.40;;;9.80;99.90;;;;;;5021852;28;20268;-89
2022/04/30 07:54:40;;;;;;;4.20;3.00;;;9.80;99.90;;;;;;5019698;28;20691;-89
2022/04/30 07:57:11;;;;;;;4.47;3.10;;;9.90;99.90;;;;;;5021761;28;20228;-89
2022/04/30 07:59:44;;;;;;;3.53;2.93;;;9.80;99.90;;;;;;5021888;28;20620;-89
2022/04/30 08:02:15;;;;;;;3.60;3.30;;;9.80;99.90;;;;;;5020441;28;20265;-88
2022/04/30 08:04:47;;;;;;;8.70;3.30;;;9.80;99.90;;;;;;5031942;28;20285;-90
2022/04/30 08:07:21;;;;;;;4.07;3.00;;;9.80;99.90;;;;;;5038776;28;20194;-92
2022/04/30 08:09:55;;;;;;;4.23;3.40;;;9.80;99.90;;;;;;5039120;28;20189;-89
2022/04/30 08:12:28;;;;;;;4.90;3.17;;;9.80;99.90;;;;;;5026403;28;20235;-89
2022/04/30 08:14:58;;;;;;;4.20;3.23;;;9.70;99.90;;;;;;5023998;28;20676;-89
2022/04/30 08:17:30;;;;;;;5.90;3.47;;;9.70;99.90;;;;;;5018787;28;20229;-89
2022/04/30 08:20:01;;;;;;;6.33;3.67;;;9.70;99.90;;;;;;5020595;28;20232;-89
2022/04/30 08:22:41;;;;;;;4.30;3.90;;;9.60;99.90;;;;;;5022397;28;20224;-89
2022/04/30 08:25:12;;;;;;;5.03;3.83;;;9.70;99.90;;;;;;5019848;28;20217;-89
2022/04/30 08:27:43;;;;;;;4.67;3.27;;;9.60;99.90;;;;;;5001919;28;20269;-89
2022/04/30 08:30:15;;;;;;;5.87;3.80;;;9.70;99.90;;;;;;4999464;28;20230;-89
2022/04/30 08:32:46;;;;;;;6.97;3.97;;;9.80;99.90;;;;;;5001752;28;20304;-89
2022/04/30 08:35:18;;;;;;;6.27;3.50;;;9.80;99.90;;;;;;5018589;28;20260;-89
2022/04/30 08:38:11;;;;;;;5.67;3.60;;;9.80;99.90;;;;;;5017548;28;20205;-89
2022/04/30 08:40:44;;;;;;;5.77;3.80;;;9.80;99.90;;;;;;5018648;28;20263;-90
2022/04/30 08:43:17;;;;;;;5.00;4.00;;;9.70;99.90;;;;;;5001391;28;20217;-89
2022/04/30 08:45:48;;;;;;;6.07;3.60;;;9.80;99.90;;;;;;4999311;28;20301;-89
2022/04/30 08:48:19;;;;;;;5.33;3.67;;;9.70;99.90;;;;;;4998654;28;20202;-89
2022/04/30 08:50:50;;;;;;;6.67;3.43;;;9.80;99.90;;;;;;4998567;28;20206;-89
2022/04/30 08:53:35;;;;;;;5.53;3.60;;;9.90;99.90;;;;;;5013290;28;20257;-89
2022/04/30 08:56:09;;;;;;;5.97;3.33;;;9.80;99.90;;;;;;4999946;28;20226;-89
2022/04/30 08:58:41;;;;;;;7.43;4.10;;;9.80;99.90;;;;;;4998574;28;20277;-89
2022/04/30 09:01:13;;;;;;;4.43;3.13;;;9.80;99.90;;;;;;4998459;28;20225;-89
2022/04/30 09:03:48;;;;;;;5.13;3.30;;;9.80;99.90;;;;;;5001987;28;20366;-89
2022/04/30 09:06:20;;;;;;;4.07;3.10;;;9.70;99.90;;;;;;5010574;28;20225;-88
2022/04/30 09:08:54;;;;;;;7.70;3.60;;;9.70;99.90;;;;;;5011135;28;20290;-89
2022/04/30 09:11:33;;;;;;;7.47;3.27;;;9.80;99.90;;;;;;5012985;28;20206;-88
2022/04/30 09:14:04;;;;;;;4.57;2.90;;;9.80;99.90;;;;;;5002009;28;20234;-89
2022/04/30 09:16:35;;;;;;;3.93;3.07;;;9.70;99.90;;;;;;5001537;28;20245;-89
2022/04/30 09:19:08;;;;;;;4.67;3.30;;;9.60;99.90;;;;;;5000660;28;20202;-89
2022/04/30 09:21:51;;;;;;;4.03;3.17;;;9.60;99.90;;;;;;5015785;28;20295;-88
2022/04/30 09:24:24;;;;;;;3.43;3.00;;;9.60;99.90;;;;;;5019697;28;20209;-89
2022/04/30 09:26:55;;;;;;;6.33;2.90;;;9.60;99.90;;;;;;5019101;28;20638;-90
2022/04/30 09:29:26;;;;;;;4.23;3.37;;;9.60;99.90;;;;;;5017882;28;20253;-89
2022/04/30 09:31:57;;;;;;;4.53;3.50;;;9.60;99.90;;;;;;5019096;28;20229;-89
2022/04/30 09:40:26;;;;;;;4.50;3.83;;;9.60;99.90;;;;;;5018631;28;20216;-89
2022/04/30 09:43:00;;;;;;;6.80;5.03;;;9.60;99.90;;;;;;5020718;28;20636;-89
2022/04/30 09:45:33;;;;;;;7.93;5.00;;;9.60;99.90;;;;;;5020824;28;20213;-89
2022/04/30 09:53:56;;;;;;;7.77;5.80;;;9.60;99.90;;;;;;5018033;28;20216;-89
2022/04/30 09:54:02;;;;;;;8.33;6.10;;;9.70;99.90;;;;;;5019073;28;20349;-89
2022/04/30 09:56:40;;;;;;;6.33;5.73;;;9.80;99.90;;;;;;5035483;28;20205;-89
2022/04/30 09:59:13;;;;;;;6.90;6.00;;;9.70;99.90;;;;;;5036307;28;20232;-88
2022/04/30 10:01:47;;;;;;;7.47;5.80;;;9.60;99.90;;;;;;5036645;28;20197;-89
2022/04/30 10:04:19;;;;;;;6.80;5.00;;;9.60;99.90;;;;;;5036846;28;20196;-90
2022/04/30 10:06:53;;;;;;;6.07;4.67;;;9.60;99.90;;;;;;5036734;28;20221;-89
2022/04/30 10:09:28;;;;;;;5.20;4.53;;;9.60;99.90;;;;;;5036049;28;20214;-88
2022/04/30 10:12:09;;;;;;;8.50;5.27;;;9.50;99.90;;;;;;5036931;28;20193;-89
2022/04/30 10:15:07;;;;;;;6.13;5.30;;;9.50;99.90;;;;;;5036629;28;20236;-90
2022/04/30 10:17:42;;;;;;;6.57;4.97;;;9.60;99.90;;;;;;5032116;28;20252;-89
2022/04/30 10:20:18;;;;;;;5.60;4.47;;;9.50;99.90;;;;;;5030915;28;20206;-89
2022/04/30 10:22:53;;;;;;;6.43;4.27;;;9.50;99.90;;;;;;5032377;28;20209;-89
2022/04/30 10:25:34;;;;;;;7.97;4.13;;;9.60;99.90;;;;;;5032209;28;20205;-89
2022/04/30 10:28:21;;;;;;;5.03;3.90;;;9.50;99.90;;;;;;5032888;28;20213;-88
2022/04/30 10:31:01;;;;;;;5.53;4.30;;;9.40;99.90;;;;;;5030627;28;20232;-89
2022/04/30 10:33:33;;;;;;;3.90;3.60;;;9.40;99.90;;;;;;5033268;28;20201;-89
2022/04/30 10:36:07;;;;;;;3.90;3.47;;;9.40;99.90;;;;;;5030895;28;20226;-89
2022/04/30 10:38:39;;;;;;;7.37;4.10;;;9.30;99.90;;;;;;5025819;28;20193;-89
2022/04/30 10:41:13;;;;;;;6.20;4.10;;;9.30;99.90;;;;;;5032662;28;20209;-89
2022/04/30 10:43:46;;;;;;;6.13;4.43;;;9.30;99.90;;;;;;5032232;28;20216;-89
2022/04/30 10:46:23;;;;;;;7.03;5.23;;;9.30;99.90;;;;;;5031142;28;20208;-89
2022/04/30 10:48:55;;;;;;;6.53;4.60;;;9.50;99.90;;;;;;5028279;28;20199;-89
2022/04/30 10:51:41;;;;;;;5.10;4.60;;;9.50;99.90;;;;;;5024491;28;20213;-88
2022/04/30 10:54:16;;;;;;;6.27;4.53;;;9.50;99.90;;;;;;5023672;28;20201;-89
2022/04/30 10:57:00;;;;;;;4.77;4.27;;;9.50;99.90;;;;;;5024444;28;20288;-90
2022/04/30 10:59:34;;;;;;;4.13;3.73;;;9.40;99.90;;;;;;5021175;28;20217;-90
2022/04/30 11:02:06;;;;;;;4.73;3.60;;;9.40;99.90;;;;;;5025164;28;20218;-89
2022/04/30 11:04:38;;;;;;;3.60;3.30;;;9.30;99.90;;;;;;5005236;28;20222;-89
2022/04/30 11:07:11;;;;;;;4.03;3.57;;;9.40;99.90;;;;;;5003376;28;20203;-89
2022/04/30 11:09:47;;;;;;;3.93;3.17;;;9.30;99.90;;;;;;5003114;28;20218;-89
2022/04/30 11:12:18;;;;;;;3.07;2.50;;;9.30;99.90;;;;;;5005075;28;20218;-89
2022/04/30 11:14:57;;;;;;;4.80;2.70;;;9.20;99.90;;;;;;5004543;28;20253;-89
2022/04/30 11:17:29;;;;;;;4.63;3.20;;;9.20;99.90;;;;;;5005740;28;20210;-89
2022/04/30 11:20:01;;;;;;;5.80;2.77;;;9.20;99.90;;;;;;5022109;28;20213;-89
2022/04/30 11:22:33;;;;;;;6.37;3.63;;;9.30;99.90;;;;;;5022607;28;20285;-89
2022/04/30 11:25:04;;;;;;;3.73;2.50;;;9.30;99.90;;;;;;5022409;28;20664;-88
2022/04/30 11:27:35;;;;;;;3.17;2.30;;;9.30;99.90;;;;;;5021497;28;20229;-88
2022/04/30 11:30:10;;;;;;;3.00;2.70;;;9.30;99.90;;;;;;5023172;28;20198;-89
2022/04/30 11:32:42;;;;;;;3.03;2.23;;;9.40;99.90;;;;;;5023955;28;20216;-89
2022/04/30 11:35:12;;;;;;;3.37;2.23;;;9.40;99.90;;;;;;5013362;28;20252;-88
2022/04/30 11:37:44;;;;;;;2.57;2.20;;;9.30;99.90;;;;;;5015819;28;20210;-89
2022/04/30 11:40:16;;;;;;;2.67;2.00;;;9.30;99.90;;;;;;5017318;28;20232;-88
2022/04/30 11:42:56;;;;;;;2.80;1.80;;;9.20;99.90;;;;;;5004883;28;20218;-89
2022/04/30 11:45:31;;;;;;;2.03;1.73;;;9.30;99.90;;;;;;5001747;28;20293;-89
2022/04/30 11:48:03;;;;;;;2.43;1.50;;;9.30;99.90;;;;;;5000865;28;20294;-88
2022/04/30 11:50:35;;;;;;;2.20;1.40;;;9.30;99.90;;;;;;5001843;28;20297;-90
2022/04/30 11:53:09;;;;;;;3.30;1.40;;;9.30;99.90;;;;;;5000916;28;20252;-88
2022/04/30 11:55:40;;;;;;;2.70;1.57;;;9.30;99.90;;;;;;5001711;28;20285;-89
2022/04/30 11:58:11;;;;;;;2.00;1.33;;;9.30;99.90;;;;;;5000651;28;20285;-89
2022/04/30 12:01:07;;;;;;;3.90;1.53;;;9.30;99.90;;;;;;4999489;28;20230;-89
2022/04/30 12:03:44;;;;;;;2.03;1.27;;;9.30;99.90;;;;;;5008874;28;20351;-89
2022/04/30 12:06:16;;;;;;;1.40;1.30;;;9.20;99.90;;;;;;5019979;28;20563;-88
2022/04/30 12:08:46;;;;;;;1.83;1.30;;;9.20;99.90;;;;;;5018437;28;20240;-89
2022/04/30 12:11:18;;;;;;;1.67;1.10;;;9.20;99.90;;;;;;5018747;28;20256;-88
2022/04/30 12:14:01;;;;;;;4.30;1.47;;;9.20;99.90;;;;;;5021924;28;20664;-89
2022/04/30 12:16:41;;;;;;;0.80;0.80;;;9.20;99.90;;;;;;5019627;28;20265;-88
2022/04/30 12:25:11;;;;;;;1.77;1.00;;;9.00;99.90;;;;;;5021464;28;20236;-88
2022/04/30 12:27:43;;;;;;;2.10;1.10;;;9.00;99.90;;;;;;5027465;28;20260;-89
2022/04/30 12:30:34;;;;;;;3.53;1.00;;;9.00;99.90;;;;;;5037285;28;20297;-89
2022/04/30 12:33:07;;;;;;;2.53;1.00;;;9.00;99.90;;;;;;5038031;28;20757;-87
2022/04/30 12:35:40;;;;;;;1.63;0.90;;;9.00;99.90;;;;;;5031705;28;20229;-89
2022/04/30 12:38:13;;;;;;;1.03;0.90;;;9.00;99.90;;;;;;5025044;28;20220;-89
2022/04/30 12:40:47;;;;;;;1.90;1.00;;;9.00;99.90;;;;;;5020503;28;20212;-89
2022/04/30 12:43:19;;;;;;;1.73;0.90;;;9.00;99.90;;;;;;5019292;28;20638;-89
2022/04/30 12:45:50;;;;;;;0.87;0.87;;;9.00;99.90;;;;;;5018683;28;20252;-89
2022/04/30 12:48:25;;;;;;;0.70;0.60;;;9.00;99.90;;;;;;5016548;28;20268;-89
2022/04/30 12:50:56;;;;;;;0.90;0.70;;;9.00;99.90;;;;;;4999617;28;20213;-87
2022/04/30 12:53:28;;;;;;;0.80;0.80;;;9.10;99.90;;;;;;5001636;28;20215;-89
2022/04/30 12:56:01;;;;;;;0.77;0.77;;;8.90;99.90;;;;;;4998631;28;20257;-87
2022/04/30 12:58:32;;;;;;;0.70;0.70;;;9.00;99.90;;;;;;4998503;28;20242;-87
2022/04/30 13:01:03;;;;;;;2.00;0.70;;;9.00;99.90;;;;;;4998906;28;20206;-87
2022/04/30 13:03:36;;;;;;;0.70;0.70;;;9.10;99.90;;;;;;5008332;28;20217;-87
2022/04/30 13:06:09;;;;;;;0.60;0.60;;;9.00;99.90;;;;;;5018173;28;20209;-88
2022/04/30 13:14:17;;;;;;;0.70;0.70;;;9.00;99.90;;;;;;5018318;28;20356;-87
2022/04/30 13:16:50;;;;;;;3.13;0.80;;;9.00;99.90;;;;;;5019941;28;20241;-87
2022/04/30 13:19:23;;;;;;;1.20;0.80;;;9.00;99.90;;;;;;5016703;28;20645;-87
2022/04/30 13:21:53;;;;;;;0.60;0.60;;;8.90;99.90;;;;;;5016607;28;20284;-87
2022/04/30 13:24:25;;;;;;;1.10;0.87;;;9.00;99.90;;;;;;5018030;28;20205;-87
2022/04/30 13:26:57;;;;;;;2.50;0.80;;;8.80;99.90;;;;;;5017928;28;20265;-87
2022/04/30 13:29:28;;;;;;;1.33;0.60;;;8.80;99.90;;;;;;5017231;28;20244;-87
2022/04/30 13:31:59;;;;;;;1.33;0.60;;;8.80;99.90;;;;;;5019264;28;20244;-87
2022/04/30 13:34:33;;;;;;;1.47;0.90;;;8.80;99.90;;;;;;5017022;28;20659;-88
2022/04/30 13:37:05;;;;;;;1.40;0.70;;;8.90;99.90;;;;;;5017343;28;20233;-88
2022/04/30 13:39:36;;;;;;;0.80;0.70;;;8.80;99.90;;;;;;5016748;28;20675;-88
2022/04/30 13:42:09;;;;;;;1.23;0.57;;;8.90;99.90;;;;;;5018956;28;20209;-89
2022/04/30 13:44:40;;;;;;;0.60;0.60;;;8.90;99.90;;;;;;5017839;28;20205;-88
2022/04/30 13:47:11;;;;;;;2.00;0.50;;;8.90;99.90;;;;;;5016732;28;20216;-89
2022/04/30 13:49:44;;;;;;;1.60;0.70;;;8.90;99.90;;;;;;5017378;28;20214;-88
2022/04/30 13:52:16;;;;;;;0.60;0.60;;;8.90;99.90;;;;;;5017494;28;20237;-89
2022/04/30 13:54:47;;;;;;;0.90;0.60;;;8.90;99.90;;;;;;5017945;28;20213;-89
2022/04/30 13:57:19;;;;;;;1.37;0.53;;;8.70;99.90;;;;;;5017471;28;20257;-91
2022/04/30 13:59:50;;;;;;;0.83;0.50;;;8.80;99.90;;;;;;5017944;28;20300;-89
2022/04/30 14:02:21;;;;;;;4.47;0.57;;;8.90;99.90;;;;;;5017295;28;20265;-88
2022/04/30 14:04:54;;;;;;;0.50;0.40;;;8.90;99.90;;;;;;5016326;28;20202;-88
2022/04/30 14:07:25;;;;;;;1.07;0.70;;;8.90;99.90;;;;;;5016770;28;20260;-89
2022/04/30 14:09:57;;;;;;;3.80;0.70;;;8.90;99.90;;;;;;5020719;28;20209;-88
2022/04/30 14:12:45;;;;;;;0.40;0.40;;;9.00;99.90;;;;;;5022474;28;20572;-89
2022/04/30 14:15:15;;;;;;;0.50;0.50;;;9.00;99.90;;;;;;5021981;28;20276;-88
2022/04/30 14:20:38;;;;;;;3.07;0.53;;;9.10;99.90;;;;;;5018032;28;20292;-89
2022/04/30 14:23:11;;;;;;;0.87;0.60;;;9.10;99.90;;;;;;5017340;28;20292;-87
2022/04/30 14:25:43;;;;;;;0.70;0.67;;;9.00;99.90;;;;;;5018007;28;20229;-88
2022/04/30 14:28:14;;;;;;;1.37;0.50;;;9.10;99.90;;;;;;4996584;28;20238;-88
2022/04/30 14:30:45;;;;;;;1.17;0.50;;;9.10;99.90;;;;;;4998121;28;20289;-88
2022/04/30 14:33:19;;;;;;;1.33;0.60;;;9.10;99.90;;;;;;4997577;28;20316;-88
2022/04/30 14:35:52;;;;;;;1.00;0.60;;;9.00;99.90;;;;;;5000422;28;20329;-88
2022/04/30 14:38:24;;;;;;;1.27;0.50;;;9.00;99.90;;;;;;5000651;28;20268;-87
2022/04/30 14:40:56;;;;;;;0.73;0.53;;;9.00;99.90;;;;;;5000860;28;20230;-88
2022/04/30 14:43:27;;;;;;;0.87;0.73;;;9.10;99.90;;;;;;5012624;28;20190;-90
2022/04/30 14:45:59;;;;;;;0.80;0.60;;;9.20;99.90;;;;;;5015743;28;20237;-88
2022/04/30 14:48:31;;;;;;;1.03;0.60;;;9.30;99.90;;;;;;5013769;28;20217;-88
2022/04/30 14:51:05;;;;;;;0.80;0.80;;;9.20;99.90;;;;;;5014166;28;20206;-87
2022/04/30 14:53:37;;;;;;;0.70;0.60;;;9.30;99.90;;;;;;5022912;28;20229;-88
2022/04/30 14:56:09;;;;;;;0.83;0.60;;;9.20;99.90;;;;;;5021710;28;20209;-88
2022/04/30 14:58:40;;;;;;;1.17;0.60;;;9.20;99.90;;;;;;5021278;28;20230;-88
2022/04/30 15:01:12;;;;;;;2.40;1.00;;;9.20;99.90;;;;;;5021789;28;20213;-88
2022/04/30 15:03:44;;;;;;;0.80;0.77;;;9.40;99.90;;;;;;5021384;28;20301;-89
2022/04/30 15:06:24;;;;;;;3.70;1.30;;;9.40;99.90;;;;;;5022808;28;20209;-88
2022/04/30 15:08:57;;;;;;;3.27;1.50;;;9.50;99.90;;;;;;5019892;28;20264;-88
2022/04/30 15:11:28;;;;;;;2.27;1.27;;;9.50;99.90;;;;;;5024944;28;20213;-88